Terminal Aerodrome Forecast
Issued by NWS Bismarck, ND

Home | Current Version | Previous Version | Text Only | Print | Product List | Glossary Off
Versions: 1 2 3 4 5 6 7 8 9 10 11 12 13 14 15 16 17 18 19 20 21 22 23 24 25

693
FTUS43 KBIS 011532 AAD
TAFBIS
TAF AMD
KBIS 011532Z 0116/0212 36007KT P6SM OVC007
      TEMPO 0118/0121 SCT007 BKN010
     FM012100 32005KT P6SM OVC010
     FM020900 03003KT P6SM OVC003=

USA.gov is the U.S. government's official web portal to all federal, state and local government web resources and services.